UAE115 OMDB-KLAX
Flight info
| Callsign | UAE115 |
|---|---|
| Flight time | N/A |
| Altitude | 29000 |
| Route | DAVMO M318 RIKOP DCT 3756N05855E/N0494F300 DCT PODOK/N0493F290 B359 ADOBI/K0904F290 N167 KURAB/K0907F310 N167 INKUM/K0904F300 L165 KST/K0898F310 L165 OSGAN/K0900F320 L165 TINRI/K0893F310 L165 BELEG/K0902F320 L165 NILMA/K0902F340 L165 ABERI/N0483F340 DCT 89N140W DCT DEKMO/N0478F330 DCT 85N140W/N0481F340 80N137W/N0486F350 75N135W 70N135W DCT YXY J536 SSR DCT BKA DCT KATCH/N0476F370 DCT KANUA B453 BOXER DCT ENI DCT AVE DCT MUPTT IRNMN2 |
| Aircraft | B77W/H-SDE1E2E3FGHIJ2J3J4J5M1RWXY/LB1D1 |
Departure
| Time | 2026-04-20 20:52 |
|---|---|
| Airport | Dubai International Airport (OMDB) |
Arrival
| Time | N/A |
|---|---|
| Airport | Los Angeles International Airport (KLAX) |
| Time | Latitude | Longitude | Altitude | Speed | Heading |
|---|---|---|---|---|---|
| 2026-04-20 20:47 | 25.24259 | 55.38080 | 59 ft | 0 kts | 36° |
| 2026-04-20 20:47 | 25.24259 | 55.38081 | 59 ft | 0 kts | 36° |
| 2026-04-20 20:49 | 25.24272 | 55.38090 | 59 ft | 5 kts | 35° |
| 2026-04-20 20:49 | 25.24318 | 55.38124 | 58 ft | 10 kts | 31° |
| 2026-04-20 20:50 | 25.24395 | 55.38175 | 58 ft | 14 kts | 31° |
| 2026-04-20 20:50 | 25.24483 | 55.38234 | 59 ft | 14 kts | 30° |
| 2026-04-20 20:50 | 25.24571 | 55.38291 | 59 ft | 14 kts | 31° |
| 2026-04-20 20:50 | 25.24640 | 55.38322 | 58 ft | 5 kts | 334° |
| 2026-04-20 20:51 | 25.24658 | 55.38293 | 58 ft | 4 kts | 301° |
| 2026-04-20 20:51 | 25.24675 | 55.38263 | 57 ft | 21 kts | 302° |
| 2026-04-20 20:51 | 25.24864 | 55.37926 | 56 ft | 79 kts | 302° |
| 2026-04-20 20:51 | 25.25251 | 55.37227 | 51 ft | 131 kts | 302° |
| 2026-04-20 20:52 | 25.25809 | 55.36223 | 45 ft | 175 kts | 302° |
| 2026-04-20 20:52 | 25.26507 | 55.34985 | 233 ft | 196 kts | 303° |
| 2026-04-20 20:52 | 25.27204 | 55.33783 | 929 ft | 187 kts | 304° |
| 2026-04-20 20:52 | 25.27914 | 55.32519 | 1316 ft | 201 kts | 301° |
| 2026-04-20 20:53 | 25.28666 | 55.31141 | 1522 ft | 216 kts | 305° |
| 2026-04-20 20:53 | 25.29783 | 55.29972 | 1749 ft | 228 kts | 332° |
| 2026-04-20 20:53 | 25.31330 | 55.29488 | 2107 ft | 236 kts | 357° |
| 2026-04-20 20:53 | 25.32930 | 55.29522 | 2827 ft | 228 kts | 360° |
| 2026-04-20 20:54 | 25.34525 | 55.29583 | 3359 ft | 229 kts | 359° |
| 2026-04-20 20:54 | 25.36118 | 55.29628 | 3833 ft | 231 kts | 359° |
| 2026-04-20 20:54 | 25.37735 | 55.29667 | 4364 ft | 231 kts | 359° |
| 2026-04-20 20:54 | 25.39346 | 55.29730 | 4848 ft | 233 kts | 6° |
| 2026-04-20 20:55 | 25.40931 | 55.30231 | 5193 ft | 244 kts | 19° |
| 2026-04-20 20:55 | 25.42527 | 55.30969 | 5533 ft | 253 kts | 20° |
| 2026-04-20 20:55 | 25.44162 | 55.31736 | 6021 ft | 256 kts | 20° |
| 2026-04-20 20:55 | 25.45800 | 55.32500 | 6558 ft | 257 kts | 20° |
| 2026-04-20 20:56 | 25.47468 | 55.33276 | 7068 ft | 258 kts | 20° |
| 2026-04-20 20:56 | 25.49119 | 55.34043 | 7551 ft | 260 kts | 20° |
| 2026-04-20 20:56 | 25.50801 | 55.34826 | 8036 ft | 262 kts | 20° |
| 2026-04-20 20:56 | 25.52492 | 55.35613 | 8525 ft | 263 kts | 20° |
| 2026-04-20 20:57 | 25.54179 | 55.36398 | 8976 ft | 267 kts | 20° |
| 2026-04-20 20:57 | 25.55946 | 55.37219 | 9168 ft | 281 kts | 20° |
| 2026-04-20 20:57 | 25.57744 | 55.38112 | 9625 ft | 285 kts | 28° |
| 2026-04-20 20:57 | 25.59396 | 55.39312 | 10137 ft | 288 kts | 33° |
| 2026-04-20 20:58 | 25.61059 | 55.40619 | 10494 ft | 296 kts | 33° |
| 2026-04-20 20:58 | 25.62757 | 55.41955 | 10917 ft | 301 kts | 32° |
| 2026-04-20 20:58 | 25.64487 | 55.43309 | 11175 ft | 313 kts | 32° |
| 2026-04-20 20:58 | 25.66321 | 55.44745 | 11304 ft | 331 kts | 34° |
| 2026-04-20 20:59 | 25.68105 | 55.46449 | 11444 ft | 349 kts | 40° |
| 2026-04-20 20:59 | 25.69928 | 55.48360 | 11630 ft | 365 kts | 41° |
| 2026-04-20 20:59 | 25.71785 | 55.50315 | 11831 ft | 379 kts | 41° |
| 2026-04-20 20:59 | 25.73724 | 55.52353 | 12210 ft | 388 kts | 41° |
| 2026-04-20 21:00 | 25.75710 | 55.54441 | 12811 ft | 390 kts | 41° |
| 2026-04-20 21:00 | 25.77680 | 55.56511 | 13392 ft | 393 kts | 41° |
| 2026-04-20 21:00 | 25.79660 | 55.58593 | 13917 ft | 396 kts | 41° |
| 2026-04-20 21:00 | 25.81662 | 55.60697 | 14397 ft | 401 kts | 41° |
| 2026-04-20 21:01 | 25.83712 | 55.62852 | 14872 ft | 406 kts | 41° |
| 2026-04-20 21:01 | 25.85827 | 55.64953 | 15380 ft | 407 kts | 34° |
| 2026-04-20 21:01 | 25.88184 | 55.66730 | 15847 ft | 410 kts | 30° |
| 2026-04-20 21:01 | 25.90603 | 55.68438 | 16307 ft | 414 kts | 30° |
| 2026-04-20 21:02 | 25.93048 | 55.70159 | 16776 ft | 417 kts | 30° |
| 2026-04-20 21:02 | 25.95512 | 55.71897 | 17226 ft | 421 kts | 29° |
| 2026-04-20 21:02 | 25.97989 | 55.73645 | 17652 ft | 425 kts | 30° |
| 2026-04-20 21:02 | 26.00517 | 55.75431 | 18067 ft | 430 kts | 29° |
| 2026-04-20 21:03 | 26.03058 | 55.77170 | 18514 ft | 431 kts | 25° |
| 2026-04-20 21:03 | 26.05800 | 55.78495 | 18902 ft | 431 kts | 15° |
| 2026-04-20 21:03 | 26.08745 | 55.79268 | 19289 ft | 431 kts | 4° |
| 2026-04-20 21:03 | 26.11698 | 55.79448 | 19696 ft | 430 kts | 354° |
| 2026-04-20 21:04 | 26.14730 | 55.79249 | 20174 ft | 431 kts | 352° |
| 2026-04-20 21:04 | 26.17716 | 55.79023 | 20659 ft | 433 kts | 354° |
| 2026-04-20 21:04 | 26.20759 | 55.79177 | 21126 ft | 440 kts | 4° |
| 2026-04-20 21:04 | 26.23777 | 55.79746 | 21576 ft | 443 kts | 7° |
| 2026-04-20 21:05 | 26.26841 | 55.80386 | 21956 ft | 447 kts | 7° |
| 2026-04-20 21:05 | 26.29903 | 55.81028 | 22267 ft | 452 kts | 7° |
| 2026-04-20 21:05 | 26.33038 | 55.81686 | 22665 ft | 455 kts | 7° |
| 2026-04-20 21:05 | 26.36134 | 55.82337 | 23109 ft | 458 kts | 7° |
| 2026-04-20 21:06 | 26.39282 | 55.82999 | 23576 ft | 461 kts | 7° |
| 2026-04-20 21:06 | 26.42478 | 55.83670 | 24043 ft | 463 kts | 7° |
| 2026-04-20 21:06 | 26.45638 | 55.84332 | 24457 ft | 466 kts | 7° |
| 2026-04-20 21:06 | 26.48824 | 55.85000 | 24824 ft | 470 kts | 7° |
| 2026-04-20 21:07 | 26.52062 | 55.85677 | 25167 ft | 474 kts | 7° |
| 2026-04-20 21:07 | 26.55322 | 55.86360 | 25556 ft | 476 kts | 7° |
| 2026-04-20 21:07 | 26.58582 | 55.87044 | 25997 ft | 477 kts | 7° |
| 2026-04-20 21:07 | 26.61844 | 55.87728 | 26363 ft | 479 kts | 7° |
| 2026-04-20 21:08 | 26.65156 | 55.88422 | 26668 ft | 483 kts | 8° |
| 2026-04-20 21:08 | 26.68480 | 55.89120 | 26993 ft | 486 kts | 7° |
| 2026-04-20 21:08 | 26.71770 | 55.89811 | 27356 ft | 488 kts | 8° |
| 2026-04-20 21:08 | 26.75136 | 55.90519 | 27672 ft | 490 kts | 7° |
| 2026-04-20 21:09 | 26.78489 | 55.91172 | 27956 ft | 492 kts | 4° |
| 2026-04-20 21:09 | 26.81931 | 55.91590 | 28292 ft | 494 kts | 2° |
| 2026-04-20 21:09 | 26.85355 | 55.91976 | 28613 ft | 496 kts | 2° |
| 2026-04-20 21:09 | 26.88795 | 55.92371 | 28895 ft | 499 kts | 3° |
| 2026-04-20 21:10 | 26.92247 | 55.92774 | 29198 ft | 501 kts | 3° |
| 2026-04-20 21:10 | 26.95711 | 55.93185 | 29616 ft | 501 kts | 3° |
| 2026-04-20 21:10 | 26.99198 | 55.93603 | 30131 ft | 498 kts | 3° |
| 2026-04-20 21:10 | 27.02594 | 55.94013 | 30626 ft | 496 kts | 4° |
| 2026-04-20 21:11 | 27.09597 | 55.94865 | 30699 ft | 496 kts | 3° |
| 2026-04-20 21:11 | 27.16486 | 55.95709 | 30708 ft | 496 kts | 4° |
| 2026-04-20 21:12 | 27.23401 | 55.96559 | 30701 ft | 496 kts | 4° |
| 2026-04-20 21:12 | 27.30322 | 55.97412 | 30720 ft | 499 kts | 3° |
| 2026-04-20 21:13 | 27.37303 | 55.98275 | 30726 ft | 499 kts | 3° |
| 2026-04-20 21:13 | 27.44158 | 55.99123 | 30739 ft | 498 kts | 4° |
| 2026-04-20 21:14 | 27.51104 | 55.99984 | 30747 ft | 498 kts | 3° |
| 2026-04-20 21:14 | 27.58027 | 56.00843 | 30798 ft | 499 kts | 4° |
| 2026-04-20 21:15 | 27.64958 | 56.01704 | 30847 ft | 498 kts | 4° |
| 2026-04-20 21:15 | 27.71857 | 56.02563 | 30897 ft | 499 kts | 4° |
| 2026-04-20 21:16 | 27.78808 | 56.03429 | 30937 ft | 502 kts | 4° |
| 2026-04-20 21:16 | 27.85737 | 56.04294 | 30937 ft | 501 kts | 4° |
| 2026-04-20 21:17 | 27.92697 | 56.05163 | 30936 ft | 502 kts | 4° |
| 2026-04-20 21:17 | 27.99642 | 56.06033 | 30943 ft | 502 kts | 4° |
| 2026-04-20 21:18 | 28.06586 | 56.06902 | 30948 ft | 501 kts | 4° |
| 2026-04-20 21:18 | 28.13492 | 56.07769 | 30951 ft | 500 kts | 4° |
| 2026-04-20 21:19 | 28.20453 | 56.08684 | 30947 ft | 501 kts | 5° |
| 2026-04-20 21:20 | 28.30864 | 56.10176 | 30963 ft | 503 kts | 5° |
| 2026-04-20 21:20 | 28.37796 | 56.11166 | 30981 ft | 502 kts | 5° |
| 2026-04-20 21:21 | 28.44699 | 56.12152 | 31007 ft | 501 kts | 4° |
| 2026-04-20 21:21 | 28.51673 | 56.13147 | 31000 ft | 503 kts | 5° |
| 2026-04-20 21:22 | 28.58583 | 56.14135 | 31047 ft | 500 kts | 4° |
| 2026-04-20 21:22 | 28.65552 | 56.15132 | 31069 ft | 503 kts | 4° |
| 2026-04-20 21:23 | 28.72457 | 56.16121 | 31098 ft | 501 kts | 4° |
| 2026-04-20 21:23 | 28.79403 | 56.17117 | 31113 ft | 501 kts | 5° |
| 2026-04-20 21:24 | 28.86349 | 56.18109 | 31122 ft | 502 kts | 4° |
| 2026-04-20 21:24 | 28.93275 | 56.19099 | 31129 ft | 501 kts | 4° |
| 2026-04-20 21:25 | 29.00205 | 56.20090 | 31138 ft | 504 kts | 4° |
| 2026-04-20 21:25 | 29.07174 | 56.21089 | 31140 ft | 501 kts | 4° |
| 2026-04-20 21:26 | 29.14069 | 56.22078 | 31150 ft | 502 kts | 4° |
| 2026-04-20 21:26 | 29.21046 | 56.23081 | 31161 ft | 501 kts | 4° |
| 2026-04-20 21:27 | 29.27970 | 56.24076 | 31170 ft | 504 kts | 4° |
| 2026-04-20 21:27 | 29.34968 | 56.25085 | 31191 ft | 503 kts | 4° |
| 2026-04-20 21:28 | 29.41931 | 56.26089 | 31196 ft | 504 kts | 4° |